createdAt,value
2017-02-19T00:01:08.264Z,75.67
2017-02-19T00:02:19.055Z,75.47
2017-02-19T00:03:29.861Z,75.47
2017-02-19T00:04:40.234Z,75.57
2017-02-19T00:05:50.634Z,75.67
2017-02-19T00:07:01.018Z,75.67
2017-02-19T00:08:11.430Z,75.85
2017-02-19T00:09:21.427Z,75.67
2017-02-19T00:10:31.468Z,75.76
2017-02-19T00:11:41.863Z,75.67
2017-02-19T00:12:52.656Z,75.7
2017-02-19T00:14:03.049Z,75.7
2017-02-19T00:15:13.832Z,75.79
2017-02-19T00:16:24.632Z,75.6
2017-02-19T00:17:35.026Z,75.6
2017-02-19T00:18:45.859Z,75.67
2017-02-19T00:19:56.248Z,75.6
2017-02-19T00:21:06.654Z,75.79
2017-02-19T00:22:17.524Z,75.7
2017-02-19T00:23:27.518Z,75.7
2017-02-19T00:24:38.329Z,75.42
2017-02-19T00:25:49.107Z,75.32
2017-02-19T00:26:59.501Z,75.51
2017-02-19T00:28:09.492Z,75.32
2017-02-19T00:29:20.284Z,75.13
2017-02-19T00:30:30.731Z,74.85
2017-02-19T00:31:41.513Z,74.94
2017-02-19T00:32:51.921Z,75.13
2017-02-19T00:34:02.722Z,75.51
2017-02-19T00:35:13.113Z,75.51
2017-02-19T00:36:23.955Z,75.23
2017-02-19T00:37:34.374Z,75.51
2017-02-19T00:38:44.376Z,75.32
2017-02-19T00:39:55.181Z,75.13
2017-02-19T00:41:05.193Z,75.51
2017-02-19T00:42:15.589Z,75.51
2017-02-19T00:43:26.109Z,75.32
2017-02-19T00:44:37.159Z,75.32
2017-02-19T00:45:47.556Z,75.7
2017-02-19T00:46:57.939Z,75.23
2017-02-19T00:48:08.362Z,75.42
2017-02-19T00:49:19.132Z,75.32
2017-02-19T00:50:29.901Z,75.51
2017-02-19T00:51:40.727Z,75.7
2017-02-19T00:52:51.119Z,75.32
2017-02-19T00:54:01.514Z,75.32
2017-02-19T00:55:12.297Z,75.32
2017-02-19T00:56:22.683Z,75.23
2017-02-19T00:57:33.464Z,75.32
2017-02-19T00:58:44.281Z,75.51
2017-02-19T00:59:55.050Z,75.51
2017-02-19T01:01:05.476Z,75.23
2017-02-19T01:02:15.740Z,75.51
2017-02-19T01:03:26.504Z,75.51
2017-02-19T01:04:36.492Z,75.79
2017-02-19T01:05:46.891Z,75.79
2017-02-19T01:06:57.668Z,75.79
2017-02-19T01:08:08.470Z,75.7
2017-02-19T01:09:18.499Z,75.79
2017-02-19T01:10:28.489Z,75.6
2017-02-19T01:11:38.891Z,75.7
2017-02-19T01:12:49.306Z,75.7
2017-02-19T01:14:00.075Z,75.79
2017-02-19T01:15:10.872Z,75.57
2017-02-19T01:16:21.258Z,75.47
2017-02-19T01:17:30.850Z,75.47
2017-02-19T01:18:41.256Z,75.38
2017-02-19T01:19:52.019Z,75.57
2017-02-19T01:21:02.812Z,75.47
2017-02-19T01:22:12.802Z,75.47
2017-02-19T01:23:23.563Z,75.47
2017-02-19T01:24:34.346Z,75.67
2017-02-19T01:25:45.140Z,75.67
2017-02-19T01:26:55.144Z,75.57
2017-02-19T01:28:05.939Z,75.76
2017-02-19T01:29:16.329Z,75.47
2017-02-19T01:30:27.111Z,75.47
2017-02-19T01:31:36.697Z,75.47
2017-02-19T01:32:47.127Z,75.47
2017-02-19T01:33:57.924Z,75.57
2017-02-19T01:35:08.306Z,75.57
2017-02-19T01:36:18.679Z,75.85
2017-02-19T01:37:29.482Z,75.85
2017-02-19T01:38:39.873Z,75.76
2017-02-19T01:39:50.247Z,75.47
2017-02-19T01:41:00.238Z,75.57
2017-02-19T01:42:11.009Z,75.47
2017-02-19T01:43:21.013Z,75.47
2017-02-19T01:44:31.418Z,75.57
2017-02-19T01:45:42.192Z,75.57
2017-02-19T01:46:52.975Z,75.28
2017-02-19T01:48:03.770Z,75.38
2017-02-19T01:49:14.159Z,75.38
2017-02-19T01:50:24.554Z,75.28
2017-02-19T01:51:34.521Z,75.47
2017-02-19T01:52:44.902Z,75.28
2017-02-19T01:53:55.274Z,75.67
2017-02-19T01:55:06.088Z,75.38
2017-02-19T01:56:16.892Z,76.23
2017-02-19T01:57:27.287Z,76.04
2017-02-19T01:58:37.671Z,75.95
2017-02-19T01:59:48.457Z,75.91
2017-02-19T02:00:59.241Z,76.14
2017-02-19T02:02:09.236Z,76.01
2017-02-19T02:03:18.837Z,76.2
2017-02-19T02:04:28.844Z,76.29
2017-02-19T02:05:39.235Z,76.2
2017-02-19T02:06:50.012Z,76.29
2017-02-19T02:08:00.029Z,76.2
2017-02-19T02:09:10.806Z,76.29
2017-02-19T02:10:20.783Z,76.29
2017-02-19T02:11:31.554Z,76.2
2017-02-19T02:12:41.540Z,76.2
2017-02-19T02:13:52.337Z,76.29
2017-02-19T02:15:02.338Z,76.2
2017-02-19T02:16:12.754Z,76.2
2017-02-19T02:17:23.144Z,76.01
2017-02-19T02:18:33.926Z,76.2
2017-02-19T02:19:44.345Z,76.29
2017-02-19T02:20:55.116Z,76.29
2017-02-19T02:22:05.498Z,76.39
2017-02-19T02:23:16.296Z,76.29
2017-02-19T02:24:27.091Z,76.25
2017-02-19T02:25:37.885Z,76.2
2017-02-19T02:26:48.290Z,75.72
2017-02-19T02:27:59.323Z,75.81
2017-02-19T02:29:09.721Z,75.91
2017-02-19T02:30:20.113Z,76.2
2017-02-19T02:31:30.924Z,75.62
2017-02-19T02:32:41.710Z,75.53
2017-02-19T02:33:52.502Z,75.31
2017-02-19T02:35:03.339Z,75.87
2017-02-19T02:36:13.335Z,75.59
2017-02-19T02:37:23.308Z,75.96
2017-02-19T02:38:33.709Z,75.87
2017-02-19T02:39:44.120Z,75.96
2017-02-19T02:40:54.915Z,75.87
2017-02-19T02:42:05.315Z,76.15
2017-02-19T02:43:15.687Z,75.59
2017-02-19T02:44:25.689Z,75.49
2017-02-19T02:45:36.472Z,75.59
2017-02-19T02:46:47.290Z,75.31
2017-02-19T02:47:57.709Z,75.4
2017-02-19T02:49:07.719Z,75.4
2017-02-19T02:50:18.496Z,75.31
2017-02-19T02:51:28.868Z,75.4
2017-02-19T02:52:39.640Z,75.31
2017-02-19T02:53:50.011Z,75.4
2017-02-19T02:55:00.388Z,75.4
2017-02-19T02:56:11.173Z,75.4
2017-02-19T02:57:21.567Z,75.4
2017-02-19T02:58:31.562Z,75.4
2017-02-19T02:59:41.544Z,75.4
2017-02-19T03:00:52.308Z,75.31
2017-02-19T03:33:14.630Z,74.88
2017-02-19T03:34:24.618Z,75.83
2017-02-19T03:35:35.419Z,76.31
2017-02-19T03:36:45.793Z,77.44
2017-02-19T03:37:56.176Z,77.72
2017-02-19T03:39:06.950Z,78.29
2017-02-19T03:40:17.325Z,78.1
2017-02-19T03:41:28.155Z,78.42
2017-02-19T03:42:38.174Z,78.42
2017-02-19T03:43:48.985Z,77.95
2017-02-19T03:44:59.777Z,77.95
2017-02-19T03:46:10.178Z,78.05
2017-02-19T03:47:20.157Z,77.8
2017-02-19T03:48:30.532Z,77.61
2017-02-19T03:49:40.918Z,77.7
2017-02-19T03:50:50.971Z,77.42
2017-02-19T03:52:01.731Z,77.23
2017-02-19T03:53:11.709Z,77.33
2017-02-19T03:54:22.090Z,76.99
2017-02-19T03:55:32.076Z,76.8
2017-02-19T03:56:42.916Z,76.51
2017-02-19T03:57:53.716Z,76.89
2017-02-19T03:59:04.108Z,76.89
2017-02-19T04:00:14.891Z,76.23
2017-02-19T04:01:25.679Z,76.51
2017-02-19T04:02:36.464Z,76.14
2017-02-19T04:03:46.874Z,75.95
2017-02-19T04:04:57.700Z,76.08
2017-02-19T04:06:08.482Z,76.27
2017-02-19T04:07:18.865Z,75.89
2017-02-19T04:08:28.903Z,75.89
2017-02-19T04:09:39.282Z,75.32
2017-02-19T04:10:49.671Z,75.32
2017-02-19T04:12:00.445Z,75.51
2017-02-19T04:13:10.847Z,75.51
2017-02-19T04:14:21.241Z,75.51
2017-02-19T04:15:32.028Z,75.42
2017-02-19T04:16:42.424Z,75.23
2017-02-19T04:17:53.187Z,75.32
2017-02-19T04:19:03.967Z,75.32
2017-02-19T04:20:14.749Z,75.32
2017-02-19T04:21:25.535Z,75.6
2017-02-19T04:22:36.324Z,75.51
2017-02-19T04:23:46.725Z,75.6
2017-02-19T04:24:57.484Z,75.51
2017-02-19T04:26:08.258Z,75.51
2017-02-19T04:27:18.648Z,74.95
2017-02-19T04:28:29.047Z,75.13
2017-02-19T04:29:39.824Z,75.04
2017-02-19T04:30:50.628Z,75.04
2017-02-19T04:32:01.027Z,75.32
2017-02-19T04:33:11.814Z,75.51
2017-02-19T04:34:22.613Z,75.6
2017-02-19T04:35:33.456Z,75.51
2017-02-19T04:36:44.233Z,75.6
2017-02-19T04:37:54.628Z,75.7
2017-02-19T04:39:05.011Z,75.04
2017-02-19T04:40:15.388Z,75.6
2017-02-19T04:41:26.180Z,75.32
2017-02-19T04:42:36.543Z,75.32
2017-02-19T04:43:47.309Z,75.13
2017-02-19T04:44:57.699Z,75.13
2017-02-19T04:46:08.104Z,75.32
2017-02-19T04:47:18.909Z,75.23
2017-02-19T04:48:29.301Z,75.13
2017-02-19T04:49:40.064Z,75.23
2017-02-19T04:50:50.821Z,75.04
2017-02-19T04:52:01.200Z,75.04
2017-02-19T04:53:11.979Z,74.66
2017-02-19T04:54:22.775Z,75.13
2017-02-19T04:55:33.554Z,74.85
2017-02-19T04:56:44.344Z,75.13
2017-02-19T04:57:55.129Z,74.85
2017-02-19T04:59:05.907Z,74.66
2017-02-19T05:00:16.286Z,74.56
2017-02-19T05:01:27.051Z,74.56
2017-02-19T05:02:37.830Z,74.75
2017-02-19T05:03:48.846Z,74.66
2017-02-19T05:04:59.650Z,74.56
2017-02-19T05:06:10.487Z,74.56
2017-02-19T05:07:21.278Z,74.66
2017-02-19T05:08:31.659Z,75.04
2017-02-19T05:09:42.431Z,74.85
2017-02-19T05:10:52.795Z,75.32
2017-02-19T05:12:03.570Z,75.13
2017-02-19T05:13:13.937Z,74.85
2017-02-19T05:14:24.713Z,74.85
2017-02-19T05:15:35.082Z,74.85
2017-02-19T05:16:45.854Z,74.95
2017-02-19T05:17:56.630Z,75.04
2017-02-19T05:19:07.020Z,74.75
2017-02-19T05:20:17.843Z,74.95
2017-02-19T05:21:27.463Z,74.85
2017-02-19T05:22:38.224Z,75.23
2017-02-19T05:23:48.633Z,74.85
2017-02-19T05:24:59.415Z,74.66
2017-02-19T05:26:10.187Z,75.13
2017-02-19T05:27:20.957Z,75.13
2017-02-19T05:28:31.751Z,75.04
2017-02-19T05:29:42.512Z,75.23
2017-02-19T05:30:53.305Z,75.13
2017-02-19T05:32:04.134Z,74.75
2017-02-19T05:33:14.515Z,74.95
2017-02-19T05:34:25.294Z,75.13
2017-02-19T05:35:36.079Z,74.75
2017-02-19T05:36:46.857Z,74.95
2017-02-19T05:37:57.224Z,74.9
2017-02-19T05:39:06.816Z,74.71
2017-02-19T05:40:17.587Z,75
2017-02-19T05:41:28.386Z,75.28
2017-02-19T05:42:39.172Z,74.81
2017-02-19T05:43:49.555Z,74.9
2017-02-19T05:44:59.956Z,74.9
2017-02-19T05:46:10.727Z,74.71
2017-02-19T05:47:21.507Z,74.9
2017-02-19T05:48:32.271Z,74.9
2017-02-19T05:49:43.046Z,74.62
2017-02-19T05:50:53.428Z,75.09
2017-02-19T05:52:04.241Z,74.81
2017-02-19T05:53:15.003Z,74.9
2017-02-19T05:54:25.801Z,74.71
2017-02-19T05:55:36.208Z,75
2017-02-19T05:56:46.597Z,74.52
2017-02-19T05:57:56.602Z,74.71
2017-02-19T05:59:07.001Z,74.62
2017-02-19T06:00:17.774Z,74.62
2017-02-19T06:01:28.568Z,74.81
2017-02-19T06:02:39.339Z,74.56
2017-02-19T06:03:49.743Z,74.75
2017-02-19T06:05:00.128Z,74.37
2017-02-19T06:06:10.501Z,74.56
2017-02-19T06:07:21.126Z,74.47
2017-02-19T06:08:31.523Z,74.37
2017-02-19T06:09:42.293Z,74.28
2017-02-19T06:10:53.066Z,74.09
2017-02-19T06:12:03.427Z,74.09
2017-02-19T06:13:13.798Z,74.09
2017-02-19T06:14:24.580Z,74.09
2017-02-19T06:15:34.953Z,74.37
2017-02-19T06:16:45.726Z,74.28
2017-02-19T06:17:56.086Z,74.37
2017-02-19T06:19:06.450Z,74.28
2017-02-19T06:20:16.846Z,74.09
2017-02-19T06:21:27.230Z,74.18
2017-02-19T06:22:38.005Z,74.37
2017-02-19T06:23:48.781Z,73.71
2017-02-19T06:24:59.154Z,74.47
2017-02-19T06:26:09.926Z,74.47
2017-02-19T06:27:20.318Z,74.47
2017-02-19T06:28:31.114Z,74.18
2017-02-19T06:29:41.113Z,74.18
2017-02-19T06:30:51.959Z,74.28
2017-02-19T06:32:02.342Z,73.84
2017-02-19T06:33:12.724Z,73.75
2017-02-19T06:34:22.707Z,73.84
2017-02-19T06:35:33.500Z,73.84
2017-02-19T06:36:44.300Z,73.84
2017-02-19T06:37:55.093Z,73.37
2017-02-19T06:39:05.490Z,73.84
2017-02-19T06:40:15.876Z,73.65
2017-02-19T06:41:26.277Z,73.65
2017-02-19T06:42:36.680Z,73.56
2017-02-19T06:43:47.087Z,73.65
2017-02-19T06:44:57.498Z,73.84
2017-02-19T06:46:08.285Z,73.56
2017-02-19T06:47:19.080Z,73.65
2017-02-19T06:48:29.869Z,73.56
2017-02-19T06:49:40.678Z,73.88
2017-02-19T06:50:51.457Z,73.56
2017-02-19T06:52:01.841Z,73.88
2017-02-19T06:53:12.635Z,73.69
2017-02-19T06:54:23.416Z,73.88
2017-02-19T06:55:34.218Z,73.79
2017-02-19T06:56:43.834Z,73.41
2017-02-19T06:57:54.214Z,73.69
2017-02-19T06:59:05.006Z,73.6
2017-02-19T07:00:15.381Z,73.69
2017-02-19T07:01:26.158Z,73.69
2017-02-19T07:02:36.934Z,73.69
2017-02-19T07:03:47.729Z,73.6
2017-02-19T07:04:58.513Z,73.41
2017-02-19T07:06:08.513Z,73.79
2017-02-19T07:07:19.333Z,73.69
2017-02-19T07:08:30.122Z,73.88
2017-02-19T07:09:40.893Z,73.82
2017-02-19T07:10:51.695Z,73.82
2017-02-19T07:12:02.487Z,73.72
2017-02-19T07:13:13.263Z,73.35
2017-02-19T07:14:23.262Z,73.35
2017-02-19T07:15:34.046Z,73.92
2017-02-19T07:16:44.839Z,73.25
2017-02-19T07:17:55.206Z,73.63
2017-02-19T07:19:05.983Z,73.54
2017-02-19T07:20:16.766Z,73.63
2017-02-19T07:21:27.541Z,73.63
2017-02-19T07:22:38.338Z,73.48
2017-02-19T07:23:49.110Z,73.96
2017-02-19T07:24:59.500Z,73.29
2017-02-19T07:26:10.284Z,73.38
2017-02-19T07:27:21.048Z,73.57
2017-02-19T07:28:31.438Z,73.29
2017-02-19T07:29:41.028Z,73.29
2017-02-19T07:30:51.395Z,73.38
2017-02-19T07:32:01.762Z,73.38
2017-02-19T07:33:12.809Z,73.38
2017-02-19T07:34:23.205Z,73.38
2017-02-19T07:35:33.999Z,73.38
2017-02-19T07:36:44.799Z,73.38
2017-02-19T07:37:55.581Z,73.1
2017-02-19T07:39:06.369Z,73.38
2017-02-19T07:40:16.752Z,73.29
2017-02-19T07:41:27.139Z,73.86
2017-02-19T07:42:37.914Z,73.29
2017-02-19T07:43:48.692Z,73.42
2017-02-19T07:44:58.701Z,73.42
2017-02-19T07:46:08.694Z,73.42
2017-02-19T07:47:19.084Z,73.23
2017-02-19T07:48:29.471Z,73.14
2017-02-19T07:49:40.253Z,73.42
2017-02-19T07:50:51.019Z,73.42
2017-02-19T07:52:01.801Z,73.42
2017-02-19T07:53:11.783Z,73.42
2017-02-19T07:54:22.601Z,73.42
2017-02-19T07:55:33.386Z,73.42
2017-02-19T07:56:43.809Z,73.23
2017-02-19T07:57:54.211Z,73.23
2017-02-19T07:59:05.010Z,73.33
2017-02-19T08:00:15.776Z,73.33
2017-02-19T08:01:26.579Z,73.52
2017-02-19T08:02:37.397Z,73.23
2017-02-19T08:03:48.178Z,72.85
2017-02-19T08:04:58.995Z,72.89
2017-02-19T08:06:09.766Z,72.6
2017-02-19T08:07:20.533Z,72.79
2017-02-19T08:08:31.325Z,72.79
2017-02-19T08:09:42.109Z,72.79
2017-02-19T08:10:52.518Z,72.79
2017-02-19T08:12:02.910Z,72.7
2017-02-19T08:13:13.713Z,72.79
2017-02-19T08:14:24.503Z,72.79
2017-02-19T08:15:35.303Z,73.08
2017-02-19T08:16:45.734Z,72.99
2017-02-19T08:17:56.105Z,73.08
2017-02-19T08:19:06.886Z,73.11
2017-02-19T08:20:17.713Z,73.21
2017-02-19T08:21:28.084Z,73.11
2017-02-19T08:22:38.477Z,72.83
2017-02-19T08:23:49.271Z,72.45
2017-02-19T08:25:00.066Z,72.83
2017-02-19T08:26:10.478Z,73.11
2017-02-19T08:27:21.239Z,73.21
2017-02-19T08:28:32.024Z,73.02
2017-02-19T08:29:42.396Z,73.11
2017-02-19T08:30:52.790Z,73.25
2017-02-19T08:32:03.165Z,72.92
2017-02-19T08:33:13.938Z,73.34
2017-02-19T08:34:24.761Z,73.25
2017-02-19T08:35:35.165Z,73.06
2017-02-19T08:36:45.557Z,73.06
2017-02-19T08:37:55.948Z,73.15
2017-02-19T08:39:06.330Z,73.15
2017-02-19T08:40:17.113Z,73.25
2017-02-19T08:41:27.894Z,73.34
2017-02-19T08:42:38.683Z,73.34
2017-02-19T08:43:49.459Z,73.06
2017-02-19T08:45:00.250Z,73.06
2017-02-19T08:46:11.016Z,73.06
2017-02-19T08:47:20.998Z,72.96
2017-02-19T08:48:31.386Z,72.96
2017-02-19T08:49:42.218Z,73.06
2017-02-19T08:50:53.005Z,73.15
2017-02-19T08:52:03.408Z,73.34
2017-02-19T08:53:13.402Z,73.06
2017-02-19T08:54:24.182Z,73.06
2017-02-19T08:55:34.991Z,73.06
2017-02-19T08:56:44.992Z,73.34
2017-02-19T08:57:55.017Z,73.06
2017-02-19T08:59:05.846Z,72.96
2017-02-19T09:00:16.247Z,72.86
2017-02-19T09:01:26.635Z,72.77
2017-02-19T09:02:37.445Z,72.96
2017-02-19T09:03:48.223Z,72.77
2017-02-19T09:04:59.009Z,72.96
2017-02-19T09:06:09.810Z,73.1
2017-02-19T09:07:20.193Z,73.15
2017-02-19T09:08:30.965Z,73
2017-02-19T09:09:41.771Z,72.71
2017-02-19T09:10:51.773Z,73.1
2017-02-19T09:12:02.583Z,72.81
2017-02-19T09:13:13.351Z,73.1
2017-02-19T09:14:24.132Z,73
2017-02-19T09:15:34.925Z,72.62
2017-02-19T09:16:45.334Z,72.33
2017-02-19T09:17:56.154Z,72.71
2017-02-19T09:19:06.970Z,72.37
2017-02-19T09:20:17.786Z,72.75
2017-02-19T09:21:28.160Z,72.94
2017-02-19T09:22:38.968Z,72.85
2017-02-19T09:23:49.389Z,73.22
2017-02-19T09:25:00.163Z,72.41
2017-02-19T09:26:10.934Z,72.5
2017-02-19T09:27:21.744Z,72.41
2017-02-19T09:28:32.563Z,72.5
2017-02-19T09:29:42.960Z,72.72
2017-02-19T09:30:53.346Z,72.72
2017-02-19T09:32:04.118Z,72.34
2017-02-19T09:33:14.536Z,72.25
2017-02-19T09:34:25.333Z,72.34
2017-02-19T09:35:36.128Z,72.06
2017-02-19T09:36:46.152Z,72.16
2017-02-19T09:37:56.576Z,72.19
2017-02-19T09:39:07.385Z,72.16
2017-02-19T09:40:18.180Z,72.19
2017-02-19T09:41:28.564Z,72.28
2017-02-19T09:42:39.364Z,72.76
2017-02-19T09:43:50.145Z,72.38
2017-02-19T09:45:00.531Z,72.23
2017-02-19T09:46:11.337Z,72.03
2017-02-19T09:47:22.132Z,71.94
2017-02-19T09:48:32.540Z,72.42
2017-02-19T09:49:42.924Z,71.84
2017-02-19T09:50:52.932Z,71.98
2017-02-19T09:52:03.729Z,71.88
2017-02-19T09:53:14.540Z,72.07
2017-02-19T09:54:25.330Z,71.98
2017-02-19T09:55:36.133Z,72.17
2017-02-19T09:56:46.169Z,72.01
2017-02-19T09:57:56.967Z,72.11
2017-02-19T09:59:07.756Z,72.3
2017-02-19T10:00:18.526Z,72.68
2017-02-19T10:01:28.934Z,73.5
2017-02-19T10:02:39.304Z,73.03
2017-02-19T10:03:50.100Z,73.56
2017-02-19T10:05:00.909Z,73.85
2017-02-19T10:06:11.710Z,73.28
2017-02-19T10:07:22.473Z,73.37
2017-02-19T10:08:33.281Z,73.08
2017-02-19T10:09:44.050Z,73.37
2017-02-19T10:10:54.866Z,73.18
2017-02-19T10:12:05.257Z,72.99
2017-02-19T10:13:15.674Z,73.37
2017-02-19T10:14:26.083Z,72.61
2017-02-19T10:15:36.893Z,72.93
2017-02-19T10:16:47.276Z,72.74
2017-02-19T10:17:57.666Z,72.74
2017-02-19T10:19:08.462Z,72.45
2017-02-19T10:20:19.235Z,72.39
2017-02-19T10:21:29.631Z,72.39
2017-02-19T10:22:40.438Z,72.68
2017-02-19T10:23:51.222Z,72.58
2017-02-19T10:25:02.059Z,72.11
2017-02-19T10:26:12.842Z,71.57
2017-02-19T10:27:23.645Z,72.33
2017-02-19T10:28:33.650Z,73.07
2017-02-19T10:29:44.512Z,72.81
2017-02-19T10:30:55.287Z,72.62
2017-02-19T10:32:06.062Z,72.43
2017-02-19T10:33:16.471Z,72.43
2017-02-19T10:34:27.264Z,72.33
2017-02-19T10:35:38.064Z,72.43
2017-02-19T10:36:48.853Z,71.86
2017-02-19T10:37:59.634Z,72.33
2017-02-19T10:39:10.027Z,71.86
2017-02-19T10:40:20.909Z,71.99
2017-02-19T10:41:31.710Z,72.37
2017-02-19T10:42:42.494Z,72.18
2017-02-19T10:43:53.273Z,72.18
2017-02-19T10:45:03.675Z,71.89
2017-02-19T10:46:14.499Z,71.93
2017-02-19T10:47:25.291Z,72.22
2017-02-19T10:48:36.082Z,71.93
2017-02-19T10:49:46.491Z,72.6
2017-02-19T10:50:56.509Z,72.6
2017-02-19T10:52:07.329Z,73.08
2017-02-19T10:53:18.117Z,72.41
2017-02-19T10:54:29.884Z,72.69
2017-02-19T10:55:41.545Z,73.55
2017-02-19T10:56:52.734Z,72.98
2017-02-19T10:58:03.687Z,73.04
2017-02-19T10:59:14.627Z,72.85
2017-02-19T11:00:25.419Z,73.17
2017-02-19T11:01:36.226Z,73.43
2017-02-19T11:02:46.993Z,73.9
2017-02-19T11:03:57.377Z,73.8
2017-02-19T11:05:07.775Z,73.71
2017-02-19T11:06:18.560Z,73.9
2017-02-19T11:07:29.377Z,73.14
2017-02-19T11:08:40.165Z,73.23
2017-02-19T11:09:50.984Z,73.61
2017-02-19T11:11:01.810Z,73.23
2017-02-19T11:12:11.835Z,73.23
2017-02-19T11:13:22.622Z,73.43
2017-02-19T11:14:33.001Z,73.04
2017-02-19T11:15:43.801Z,73.14
2017-02-19T11:16:53.788Z,73.14
2017-02-19T11:18:04.186Z,73.23
2017-02-19T11:19:14.970Z,73.23
2017-02-19T11:20:25.760Z,73.23
2017-02-19T11:21:36.220Z,73.04
2017-02-19T11:22:47.189Z,73.9
2017-02-19T11:23:57.994Z,73.8
2017-02-19T11:25:08.790Z,73.9
2017-02-19T11:26:19.604Z,74.48
2017-02-19T11:27:30.456Z,74.09
2017-02-19T11:28:41.293Z,73.8
2017-02-19T11:29:52.080Z,74.28
2017-02-19T11:31:02.882Z,73.99
2017-02-19T11:32:13.279Z,73.96
2017-02-19T11:33:24.063Z,74.53
2017-02-19T11:34:34.468Z,74.82
2017-02-19T11:35:44.462Z,75.01
2017-02-19T11:36:55.287Z,75.16
2017-02-19T11:38:06.108Z,74.98
2017-02-19T11:39:16.511Z,75.26
2017-02-19T11:40:27.319Z,75.45
2017-02-19T11:41:37.700Z,75.45
2017-02-19T11:42:48.477Z,75.45
2017-02-19T11:43:58.867Z,75.54
2017-02-19T11:45:09.273Z,74.88
2017-02-19T11:46:20.111Z,74.78
2017-02-19T11:47:30.913Z,74.88
2017-02-19T11:48:41.723Z,75.35
2017-02-19T11:49:52.530Z,74.21
2017-02-19T11:51:03.344Z,74.21
2017-02-19T11:52:13.734Z,74.02
2017-02-19T11:53:24.639Z,74.11
2017-02-19T11:54:35.426Z,74.3
2017-02-19T11:55:46.209Z,74.05
2017-02-19T11:56:56.632Z,73.67
2017-02-19T11:58:07.425Z,73.67
2017-02-19T11:59:18.204Z,73.67
2017-02-19T12:00:29.019Z,73.77
2017-02-19T12:01:39.405Z,73.86
2017-02-19T12:02:50.196Z,74.05
2017-02-19T12:04:01.007Z,74.34
2017-02-19T12:05:11.821Z,74.24
2017-02-19T12:06:22.232Z,73.96
2017-02-19T12:07:33.054Z,73.92
2017-02-19T12:08:43.906Z,74.11
2017-02-19T12:09:54.734Z,74.78
2017-02-19T12:11:05.640Z,75.07
2017-02-19T12:12:16.485Z,74.88
2017-02-19T12:13:27.348Z,74.59
2017-02-19T12:14:38.242Z,74.88
2017-02-19T12:15:49.079Z,74.98
2017-02-19T12:16:59.496Z,74.78
2017-02-19T12:18:09.904Z,74.98
2017-02-19T12:19:20.344Z,74.88
2017-02-19T12:20:31.199Z,74.69
2017-02-19T12:21:42.006Z,74.98
2017-02-19T12:22:52.447Z,74.88
2017-02-19T12:24:03.270Z,75.07
2017-02-19T12:25:13.705Z,74.78
2017-02-19T12:26:24.500Z,75.35
2017-02-19T12:27:35.125Z,75.89
2017-02-19T12:28:45.959Z,75.32
2017-02-19T12:29:56.748Z,75.51
2017-02-19T12:31:07.582Z,75.42
2017-02-19T12:32:18.031Z,75.51
2017-02-19T12:33:28.861Z,75.22
2017-02-19T12:34:39.652Z,75.13
2017-02-19T12:35:50.528Z,74.98
2017-02-19T12:37:01.312Z,75.16
2017-02-19T12:38:11.700Z,75.13
2017-02-19T12:39:22.496Z,74.88
2017-02-19T12:40:33.307Z,74.84
2017-02-19T12:41:43.692Z,74.98
2017-02-19T12:42:54.479Z,74.78
2017-02-19T12:44:05.261Z,75.07
2017-02-19T12:45:16.072Z,74.88
2017-02-19T12:46:26.938Z,74.88
2017-02-19T12:47:37.362Z,74.88
2017-02-19T12:48:47.754Z,74.88
2017-02-19T12:49:58.158Z,74.84
2017-02-19T12:51:08.546Z,75.13
2017-02-19T12:52:19.365Z,75.16
2017-02-19T12:53:30.224Z,74.88
2017-02-19T12:54:40.673Z,74.98
2017-02-19T12:55:51.471Z,74.98
2017-02-19T12:57:02.295Z,74.78
2017-02-19T12:58:13.096Z,74.88
2017-02-19T12:59:23.890Z,74.21
2017-02-19T13:00:34.698Z,74.3
2017-02-19T13:01:45.091Z,74.4
2017-02-19T13:02:55.485Z,74.3
2017-02-19T13:04:06.291Z,74.3
2017-02-19T13:05:16.697Z,74.05
2017-02-19T13:06:27.488Z,74.34
2017-02-19T13:07:37.509Z,73.96
2017-02-19T13:08:48.329Z,73.96
2017-02-19T13:09:59.133Z,74.15
2017-02-19T13:11:09.936Z,73.96
2017-02-19T13:12:20.324Z,73.86
2017-02-19T13:13:30.729Z,73.96
2017-02-19T13:14:41.516Z,74.44
2017-02-19T13:15:52.318Z,74.34
2017-02-19T13:17:03.099Z,74.44
2017-02-19T13:18:13.892Z,74.34
2017-02-19T13:19:24.667Z,74.34
2017-02-19T13:20:35.053Z,74.44
2017-02-19T13:21:45.466Z,74.91
2017-02-19T13:22:56.259Z,74.73
2017-02-19T13:24:06.275Z,74.91
2017-02-19T13:25:17.058Z,74.88
2017-02-19T13:26:27.457Z,75.07
2017-02-19T13:27:37.871Z,75.16
2017-02-19T13:28:48.677Z,75.07
2017-02-19T13:29:59.162Z,74.88
2017-02-19T13:31:09.956Z,74.78
2017-02-19T13:32:20.098Z,75.45
2017-02-19T13:33:30.934Z,75.16
2017-02-19T13:34:41.816Z,75.93
2017-02-19T13:35:52.679Z,75.74
2017-02-19T13:37:03.541Z,75.35
2017-02-19T13:38:14.434Z,75.35
2017-02-19T13:39:25.321Z,75.54
2017-02-19T13:40:36.200Z,75.74
2017-02-19T13:41:47.094Z,75.26
2017-02-19T13:42:57.931Z,75.45
2017-02-19T13:44:08.796Z,75.45
2017-02-19T13:45:19.711Z,75.83
2017-02-19T13:46:30.551Z,75.16
2017-02-19T13:47:40.940Z,75.54
2017-02-19T13:48:51.875Z,75.45
2017-02-19T13:50:02.778Z,75.35
2017-02-19T13:51:13.782Z,74.88
2017-02-19T13:52:24.620Z,75.16
2017-02-19T13:53:35.091Z,75.35
2017-02-19T13:54:45.977Z,75.26
2017-02-19T13:55:56.874Z,75.83
2017-02-19T13:57:07.696Z,75.54
2017-02-19T13:58:18.180Z,75.45
2017-02-19T13:59:29.064Z,75.93
2017-02-19T14:00:39.940Z,75.26
2017-02-19T14:01:49.528Z,75.07
2017-02-19T14:03:00.342Z,75.07
2017-02-19T14:04:11.172Z,74.98
2017-02-19T14:05:21.974Z,74.98
2017-02-19T14:06:32.779Z,74.98
2017-02-19T14:07:43.575Z,74.88
2017-02-19T14:08:54.368Z,75.35
2017-02-19T14:10:05.013Z,75.35
2017-02-19T14:11:15.854Z,75.26
2017-02-19T14:12:26.654Z,75.45
2017-02-19T14:13:37.461Z,75.54
2017-02-19T14:14:47.850Z,75.54
2017-02-19T14:15:58.649Z,75.74
2017-02-19T14:17:09.924Z,75.64
2017-02-19T14:18:20.843Z,75.45
2017-02-19T14:19:31.904Z,75.64
2017-02-19T14:20:42.846Z,75.54
2017-02-19T14:21:53.732Z,75.26
2017-02-19T14:23:04.564Z,75.74
2017-02-19T14:24:15.434Z,75.6
2017-02-19T14:25:26.258Z,76.08
2017-02-19T14:26:37.163Z,75.89
2017-02-19T14:27:48.031Z,75.89
2017-02-19T14:28:58.864Z,75.98
2017-02-19T14:30:09.514Z,76.08
2017-02-19T14:31:20.372Z,76.52
2017-02-19T14:32:31.278Z,76.42
2017-02-19T14:33:41.774Z,76.33
2017-02-19T14:34:52.673Z,76.42
2017-02-19T14:36:03.631Z,76.52
2017-02-19T14:37:14.526Z,76.14
2017-02-19T14:38:25.828Z,76.23
2017-02-19T14:39:36.990Z,76.52
2017-02-19T14:40:48.064Z,75.95
2017-02-19T14:41:58.997Z,75.95
2017-02-19T14:43:09.836Z,76.04
2017-02-19T14:44:20.922Z,75.66
2017-02-19T14:45:31.906Z,75.57
2017-02-19T14:46:42.761Z,75.66
2017-02-19T14:47:54.040Z,75.37
2017-02-19T14:49:05.445Z,75.85
2017-02-19T14:50:16.613Z,75.37
2017-02-19T14:51:27.301Z,75.37
2017-02-19T14:52:38.692Z,75.37
2017-02-19T14:53:50.177Z,75.18
2017-02-19T14:55:01.570Z,75.37
2017-02-19T14:56:26.959Z,75.28
2017-02-19T14:57:39.029Z,75.57
2017-02-19T14:58:50.270Z,75.47
2017-02-19T15:00:01.581Z,75.18
2017-02-19T15:01:13.912Z,75.37
2017-02-19T15:02:25.114Z,76.04
2017-02-19T15:03:36.098Z,75.72
2017-02-19T15:04:47.345Z,76.2
2017-02-19T15:05:57.787Z,76.67
2017-02-19T15:07:10.238Z,77.06
2017-02-19T15:08:21.717Z,76.64
2017-02-19T15:09:32.182Z,76.92
2017-02-19T15:10:43.000Z,76.64
2017-02-19T15:11:53.847Z,76.64
2017-02-19T15:13:05.371Z,76.35
2017-02-19T15:14:16.822Z,76.35
2017-02-19T15:15:27.891Z,76.44
2017-02-19T15:16:38.899Z,76.35
2017-02-19T15:17:50.109Z,76.35
2017-02-19T15:19:01.356Z,76.16
2017-02-19T15:20:27.478Z,75.87
2017-02-19T15:21:38.097Z,75.68
2017-02-19T15:22:48.903Z,75.78
2017-02-19T15:23:59.704Z,75.87
2017-02-19T15:25:10.539Z,76.16
2017-02-19T15:26:20.954Z,76.16
2017-02-19T15:27:31.371Z,75.87
2017-02-19T15:28:41.781Z,75.78
2017-02-19T15:29:52.575Z,75.49
2017-02-19T15:31:02.659Z,75.68
2017-02-19T15:32:13.150Z,76.06
2017-02-19T15:33:23.970Z,76.06
2017-02-19T15:34:35.003Z,76.06
2017-02-19T15:35:45.845Z,76.06
2017-02-19T15:36:56.660Z,76.06
2017-02-19T15:38:07.690Z,75.96
2017-02-19T15:39:18.559Z,75.78
2017-02-19T15:40:29.401Z,75.78
2017-02-19T15:41:39.807Z,75.96
2017-02-19T15:42:50.588Z,76.06
2017-02-19T15:44:01.012Z,76.54
2017-02-19T15:45:11.626Z,76.12